createdAt,value
2023-11-13T00:01:31.591Z,100843.75
2023-11-13T00:03:58.322Z,100842.91
2023-11-13T00:06:24.879Z,100836.72
2023-11-13T00:08:51.360Z,100820.59
2023-11-13T00:11:17.939Z,100815.69
2023-11-13T00:13:45.625Z,100814.03
2023-11-13T00:16:12.260Z,100805.38
2023-11-13T00:18:38.801Z,100816.16
2023-11-13T00:21:05.501Z,100814.50
2023-11-13T00:23:32.899Z,100811.25
2023-11-13T00:25:59.675Z,100808.78
2023-11-13T00:28:26.236Z,100793.47
2023-11-13T00:30:53.198Z,100790.19
2023-11-13T00:33:19.787Z,100796.38
2023-11-13T00:35:46.262Z,100794.75
2023-11-13T00:38:13.594Z,100790.19
2023-11-13T00:40:40.915Z,100789.63
2023-11-13T00:43:07.841Z,100780.72
2023-11-13T00:45:34.651Z,100793.09
2023-11-13T00:48:02.138Z,100785.28
2023-11-13T00:50:29.037Z,100797.69
2023-11-13T00:52:55.565Z,100795.56
2023-11-13T00:55:22.413Z,100782.34
2023-11-13T00:57:48.970Z,100769.16
2023-11-13T01:00:16.367Z,100765.63
2023-11-13T01:02:43.128Z,100769.16
2023-11-13T01:05:09.934Z,100761.09
2023-11-13T01:07:36.456Z,100751.13
2023-11-13T01:10:03.168Z,100748.44
2023-11-13T01:12:30.848Z,100748.22
2023-11-13T01:14:59.628Z,100739.09
2023-11-13T01:17:26.581Z,100740.47
2023-11-13T01:19:53.139Z,100738.38
2023-11-13T01:22:20.048Z,100740.84
2023-11-13T01:24:46.684Z,100729.03
2023-11-13T01:27:13.281Z,100728.19
2023-11-13T01:29:39.790Z,100732.53
2023-11-13T01:32:06.762Z,100734.16
2023-11-13T01:34:37.322Z,100735.00
2023-11-13T01:37:04.138Z,100735.78
2023-11-13T01:39:30.697Z,100737.69
2023-11-13T01:41:57.129Z,100749.03
2023-11-13T01:44:25.898Z,100740.94
2023-11-13T01:46:52.598Z,100740.69
2023-11-13T01:49:20.827Z,100735.09
2023-11-13T01:51:50.302Z,100732.41
2023-11-13T01:54:21.317Z,100740.22
2023-11-13T01:56:48.906Z,100743.75
2023-11-13T01:59:16.431Z,100734.63
2023-11-13T02:01:43.588Z,100741.06
2023-11-13T02:04:10.714Z,100731.94
2023-11-13T02:06:37.396Z,100732.50
2023-11-13T02:09:06.567Z,100725.25
2023-11-13T02:11:33.302Z,100722.31
2023-11-13T02:13:59.845Z,100716.94
2023-11-13T02:16:26.520Z,100714.25
2023-11-13T02:18:53.548Z,100713.19
2023-11-13T02:21:20.043Z,100707.34
2023-11-13T02:23:46.801Z,100706.50
2023-11-13T02:26:17.393Z,100705.69
2023-11-13T02:28:44.671Z,100708.97
2023-11-13T02:31:11.834Z,100688.50
2023-11-13T02:33:38.474Z,100683.69
2023-11-13T02:36:05.227Z,100675.63
2023-11-13T02:38:31.857Z,100670.81
2023-11-13T02:40:59.090Z,100665.44
2023-11-13T02:43:26.530Z,100667.88
2023-11-13T02:45:53.706Z,100665.44
2023-11-13T02:48:20.712Z,100660.06
2023-11-13T02:50:48.663Z,100670.81
2023-11-13T02:53:16.416Z,100683.22
2023-11-13T02:55:43.242Z,100679.47
2023-11-13T02:58:09.974Z,100672.47
2023-11-13T03:00:36.682Z,100678.66
2023-11-13T03:03:06.279Z,100682.38
2023-11-13T03:05:33.566Z,100677.84
2023-11-13T03:08:04.331Z,100688.59
2023-11-13T03:10:31.586Z,100694.56
2023-11-13T03:12:58.699Z,100697.84
2023-11-13T03:15:26.040Z,100689.97
2023-11-13T03:17:53.128Z,100696.78
2023-11-13T03:20:20.059Z,100687.88
2023-11-13T03:22:46.690Z,100696.19
2023-11-13T03:25:15.993Z,100707.53
2023-11-13T03:27:43.043Z,100712.09
2023-11-13T03:30:10.725Z,100712.91
2023-11-13T03:32:38.129Z,100714.56
2023-11-13T03:35:05.574Z,100703.78
2023-11-13T03:37:32.390Z,100703.78
2023-11-13T03:39:59.346Z,100697.94
2023-11-13T03:42:26.237Z,100684.47
2023-11-13T03:44:53.303Z,100681.78
2023-11-13T03:47:20.232Z,100681.78
2023-11-13T03:49:48.101Z,100687.16
2023-11-13T03:52:15.103Z,100677.78
2023-11-13T03:54:42.291Z,100690.44
2023-11-13T03:57:12.182Z,100694.75
2023-11-13T03:59:39.245Z,100670.53
2023-11-13T04:02:06.166Z,100654.38
2023-11-13T04:04:32.972Z,100665.16
2023-11-13T04:07:00.017Z,100674.84
2023-11-13T04:09:26.633Z,100670.06
2023-11-13T04:11:53.282Z,100659.28
2023-11-13T04:14:19.800Z,100661.72
2023-11-13T04:16:46.317Z,100659.81
2023-11-13T04:19:13.856Z,100645.56
2023-11-13T04:21:40.424Z,100649.63
2023-11-13T04:24:07.745Z,100638.88
2023-11-13T04:26:34.257Z,100645.88
2023-11-13T04:29:00.717Z,100630.56
2023-11-13T04:31:27.305Z,100623.31
2023-11-13T04:33:53.843Z,100609.84
2023-11-13T04:36:21.972Z,100598.28
2023-11-13T04:38:48.606Z,100586.19
2023-11-13T04:41:16.909Z,100579.19
2023-11-13T04:43:46.795Z,100570.88
2023-11-13T04:46:14.250Z,100567.91
2023-11-13T04:48:41.135Z,100569.56
2023-11-13T04:51:07.903Z,100584.63
2023-11-13T04:53:34.707Z,100581.94
2023-11-13T04:56:01.152Z,100580.88
2023-11-13T04:58:27.845Z,100586.03
2023-11-13T05:00:54.969Z,100586.84
2023-11-13T05:03:21.992Z,100576.66
2023-11-13T05:05:48.795Z,100573.94
2023-11-13T05:08:15.510Z,100571.06
2023-11-13T05:10:42.112Z,100561.09
2023-11-13T05:13:08.823Z,100559.22
2023-11-13T05:15:35.375Z,100561.66
2023-11-13T05:18:02.682Z,100555.22
2023-11-13T05:20:29.523Z,100553.59
2023-11-13T05:22:56.002Z,100552.53
2023-11-13T05:25:22.690Z,100562.22
2023-11-13T05:27:49.966Z,100552.28
2023-11-13T05:30:17.023Z,100541.25
2023-11-13T05:32:43.756Z,100539.13
2023-11-13T05:35:10.438Z,100525.69
2023-11-13T05:37:36.932Z,100522.75
2023-11-13T05:40:03.836Z,100525.19
2023-11-13T05:42:30.523Z,100518.75
2023-11-13T05:44:56.978Z,100510.66
2023-11-13T05:47:23.969Z,100509.03
2023-11-13T05:49:50.537Z,100498.84
2023-11-13T05:52:18.781Z,100491.59
2023-11-13T05:54:45.444Z,100477.84
2023-11-13T05:57:11.929Z,100484.88
2023-11-13T05:59:38.417Z,100480.31
2023-11-13T06:02:05.067Z,100477.34
2023-11-13T06:04:31.606Z,100477.34
2023-11-13T06:06:58.280Z,100473.59
2023-11-13T06:09:25.399Z,100478.19
2023-11-13T06:11:51.961Z,100468.22
2023-11-13T06:14:18.598Z,100474.16
2023-11-13T06:16:45.419Z,100475.78
2023-11-13T06:19:12.013Z,100473.94
2023-11-13T06:21:38.549Z,100465.59
2023-11-13T06:24:05.418Z,100471.53
2023-11-13T06:26:32.020Z,100467.22
2023-11-13T06:28:58.698Z,100462.41
2023-11-13T06:31:27.120Z,100466.72
2023-11-13T06:33:54.284Z,100465.66
2023-11-13T06:36:20.900Z,100456.78
2023-11-13T06:38:48.943Z,100452.75
2023-11-13T06:41:15.634Z,100462.47
2023-11-13T06:43:42.334Z,100464.09
2023-11-13T06:46:08.941Z,100456.56
2023-11-13T06:48:35.952Z,100471.09
2023-11-13T06:51:03.000Z,100465.44
2023-11-13T06:53:29.634Z,100456.56
2023-11-13T06:55:56.159Z,100454.44
2023-11-13T06:58:23.659Z,100450.69
2023-11-13T07:08:25.216Z,100455.06
2023-11-13T07:10:52.303Z,100462.09
2023-11-13T07:13:19.284Z,100459.94
2023-11-13T07:15:45.832Z,100448.69
2023-11-13T07:18:13.550Z,100436.81
2023-11-13T07:20:41.155Z,100424.16
2023-11-13T07:23:07.570Z,100422.84
2023-11-13T07:25:34.122Z,100426.09
2023-11-13T07:28:00.761Z,100413.19
2023-11-13T07:30:28.822Z,100404.03
2023-11-13T07:32:55.626Z,100389.50
2023-11-13T07:35:22.096Z,100390.88
2023-11-13T07:37:48.818Z,100372.81
2023-11-13T07:40:16.475Z,100370.44
2023-11-13T07:42:44.581Z,100352.38
2023-11-13T07:45:15.152Z,100374.75
2023-11-13T07:47:42.118Z,100379.91
2023-11-13T07:50:12.999Z,100386.91
2023-11-13T07:52:44.931Z,100375.06
2023-11-13T07:55:15.794Z,100362.16
2023-11-13T07:57:45.020Z,100350.28
2023-11-13T08:00:15.139Z,100355.41
2023-11-13T08:02:43.808Z,100349.50
2023-11-13T08:05:14.017Z,100346.56
2023-11-13T08:07:41.909Z,100347.94
2023-11-13T08:10:13.772Z,100347.69
2023-11-13T08:12:45.772Z,100340.97
2023-11-13T08:15:13.909Z,100342.31
2023-11-13T08:17:44.771Z,100333.72
2023-11-13T08:20:16.206Z,100327.81
2023-11-13T08:22:44.139Z,100327.28
2023-11-13T08:25:13.685Z,100328.91
2023-11-13T08:27:41.746Z,100313.28
2023-11-13T08:30:09.522Z,100301.97
2023-11-13T08:32:36.804Z,100293.66
2023-11-13T08:35:06.760Z,100288.81
2023-11-13T08:37:33.747Z,100279.38
2023-11-13T08:40:01.933Z,100269.13
2023-11-13T08:42:28.892Z,100258.09
2023-11-13T08:44:57.286Z,100255.69
2023-11-13T08:47:23.998Z,100243.81
2023-11-13T08:49:51.056Z,100238.97
2023-11-13T08:52:21.263Z,100228.22
2023-11-13T08:54:48.080Z,100220.94
2023-11-13T08:57:15.010Z,100220.41
2023-11-13T08:59:41.517Z,100208.28
2023-11-13T09:02:08.109Z,100200.19
2023-11-13T09:04:35.975Z,100188.88
2023-11-13T09:07:09.103Z,100186.72
2023-11-13T09:09:36.275Z,100183.22
2023-11-13T09:12:05.098Z,100193.78
2023-11-13T09:14:33.431Z,100188.94
2023-11-13T09:17:11.082Z,100182.47
2023-11-13T09:19:40.264Z,100171.69
2023-11-13T09:22:10.718Z,100165.22
2023-11-13T09:24:42.102Z,100160.38
2023-11-13T09:27:12.965Z,100152.53
2023-11-13T09:29:44.638Z,100157.69
2023-11-13T09:32:12.439Z,100147.13
2023-11-13T09:34:39.278Z,100150.63
2023-11-13T09:37:06.938Z,100134.72
2023-11-13T09:39:35.909Z,100130.41
2023-11-13T09:42:13.887Z,100119.84
2023-11-13T09:44:50.708Z,100124.47
2023-11-13T09:47:28.595Z,100123.38
2023-11-13T09:50:02.500Z,100109.03
2023-11-13T09:52:32.088Z,100103.63
2023-11-13T09:54:58.821Z,100089.88
2023-11-13T09:57:26.998Z,100094.44
2023-11-13T09:59:53.947Z,100098.75
2023-11-13T10:02:21.429Z,100102.81
2023-11-13T10:04:48.259Z,100074.44
2023-11-13T10:07:17.733Z,100078.50
2023-11-13T10:10:01.561Z,100070.94
2023-11-13T10:12:33.035Z,100062.00
2023-11-13T10:15:09.384Z,100054.44
2023-11-13T10:17:48.163Z,100042.00
2023-11-13T10:20:18.633Z,100036.31
2023-11-13T10:22:59.464Z,100018.75
2023-11-13T10:25:40.620Z,100002.53
2023-11-13T10:28:09.344Z,100002.53
2023-11-13T10:30:53.645Z,100002.00
2023-11-13T10:33:21.205Z,99989.56
2023-11-13T10:35:49.940Z,99979.28
2023-11-13T10:38:21.741Z,99962.78
2023-11-13T10:40:56.395Z,99963.59
2023-11-13T10:43:32.019Z,99956.03
2023-11-13T10:46:00.518Z,99939.81
2023-11-13T10:48:43.793Z,99926.81
2023-11-13T10:51:14.345Z,99917.06
2023-11-13T10:53:44.108Z,99895.44
2023-11-13T10:56:11.733Z,99889.50
2023-11-13T10:58:38.990Z,99883.00
2023-11-13T11:01:06.765Z,99884.31
2023-11-13T11:03:38.467Z,99885.69
2023-11-13T11:06:12.352Z,99861.88
2023-11-13T11:08:39.511Z,99847.28
2023-11-13T11:11:11.586Z,99840.47
2023-11-13T11:13:48.755Z,99822.91
2023-11-13T11:16:27.539Z,99802.88
2023-11-13T11:19:11.675Z,99795.56
2023-11-13T11:22:07.658Z,99802.31
2023-11-13T11:25:08.275Z,99803.94
2023-11-13T11:27:42.895Z,99811.75
2023-11-13T11:30:18.721Z,99767.69
2023-11-13T11:33:11.770Z,99770.09
2023-11-13T11:35:42.683Z,99751.16
2023-11-13T11:38:23.255Z,99737.91
2023-11-13T11:40:51.070Z,99736.75
2023-11-13T11:43:30.310Z,99721.84
2023-11-13T11:45:59.945Z,99714.25
2023-11-13T11:48:27.563Z,99696.63
2023-11-13T11:50:57.460Z,99682.53
2023-11-13T11:53:24.733Z,99677.13
2023-11-13T11:55:51.829Z,99662.22
2023-11-13T11:58:18.610Z,99657.84
2023-11-13T12:00:46.474Z,99648.06
2023-11-13T12:03:13.195Z,99636.34
2023-11-13T12:05:40.935Z,99621.16
2023-11-13T12:08:11.214Z,99608.13
2023-11-13T12:10:39.629Z,99609.69
2023-11-13T12:13:07.953Z,99605.81
2023-11-13T12:15:34.847Z,99609.03
2023-11-13T12:18:02.553Z,99597.59
2023-11-13T12:20:30.199Z,99588.63
2023-11-13T12:22:57.062Z,99600.44
2023-11-13T12:25:24.662Z,99586.63
2023-11-13T12:27:53.083Z,99575.81
2023-11-13T12:30:23.660Z,99577.09
2023-11-13T12:32:52.455Z,99561.28
2023-11-13T12:35:21.506Z,99556.03
2023-11-13T12:37:49.796Z,99552.66
2023-11-13T12:40:21.573Z,99552.25
2023-11-13T12:42:49.186Z,99553.25
2023-11-13T12:45:18.965Z,99553.69
2023-11-13T12:47:49.829Z,99537.03
2023-11-13T12:50:18.188Z,99542.75
2023-11-13T12:52:47.955Z,99549.09
2023-11-13T12:55:22.808Z,99546.72
2023-11-13T12:57:50.864Z,99557.97
2023-11-13T13:00:20.625Z,99555.16
2023-11-13T13:02:50.781Z,99546.31
2023-11-13T13:05:29.194Z,99554.53
2023-11-13T13:07:59.883Z,99550.94
2023-11-13T13:10:26.770Z,99558.38
2023-11-13T13:12:53.439Z,99547.31
2023-11-13T13:15:21.855Z,99546.09
2023-11-13T13:17:51.989Z,99543.88
2023-11-13T13:20:20.053Z,99536.09
2023-11-13T13:22:52.724Z,99541.41
2023-11-13T13:25:26.348Z,99545.72
2023-11-13T13:27:53.220Z,99533.66
2023-11-13T13:30:20.290Z,99533.84
2023-11-13T13:32:52.290Z,99535.75
2023-11-13T13:35:21.247Z,99549.81
2023-11-13T13:37:47.971Z,99549.53
2023-11-13T13:40:15.127Z,99546.38
2023-11-13T13:42:41.781Z,99546.75
2023-11-13T13:45:09.435Z,99548.84
2023-11-13T13:47:37.096Z,99546.50
2023-11-13T13:50:04.205Z,99544.28
2023-11-13T13:52:31.556Z,99541.91
2023-11-13T13:54:59.646Z,99535.66
2023-11-13T13:57:29.352Z,99532.03
2023-11-13T13:59:56.313Z,99514.28
2023-11-13T14:02:23.011Z,99504.28
2023-11-13T14:04:50.194Z,99502.34
2023-11-13T14:07:17.069Z,99500.75
2023-11-13T14:09:44.805Z,99500.75
2023-11-13T14:12:18.711Z,99496.63
2023-11-13T14:14:49.490Z,99496.13
2023-11-13T14:17:16.242Z,99486.25
2023-11-13T14:19:42.730Z,99478.25
2023-11-13T14:22:10.472Z,99475.81
2023-11-13T14:24:37.609Z,99498.97
2023-11-13T14:27:05.267Z,99505.84
2023-11-13T14:29:34.763Z,99511.28
2023-11-13T14:32:02.150Z,99512.38
2023-11-13T14:34:28.669Z,99517.00
2023-11-13T14:36:55.433Z,99525.16
2023-11-13T14:39:22.146Z,99530.59
2023-11-13T14:41:48.630Z,99539.84
2023-11-13T14:44:15.066Z,99539.84
2023-11-13T14:46:42.093Z,99552.31
2023-11-13T14:49:08.914Z,99546.38
2023-11-13T14:51:35.626Z,99542.25
2023-11-13T14:54:02.785Z,99560.47
2023-11-13T14:56:29.213Z,99568.59
2023-11-13T14:58:55.647Z,99564.59
2023-11-13T15:01:23.679Z,99556.75
2023-11-13T15:03:52.440Z,99553.53
2023-11-13T15:06:19.126Z,99553.53
2023-11-13T15:08:45.627Z,99554.16
2023-11-13T15:11:13.379Z,99554.66
2023-11-13T15:13:40.575Z,99551.16
2023-11-13T15:16:08.774Z,99566.00
2023-11-13T15:18:45.316Z,99581.50
2023-11-13T15:21:16.423Z,99579.91
2023-11-13T15:23:46.731Z,99590.44
2023-11-13T15:26:13.765Z,99578.47
2023-11-13T15:28:40.686Z,99580.41
2023-11-13T15:31:10.042Z,99574.16
2023-11-13T15:33:36.674Z,99582.31
2023-11-13T15:36:03.408Z,99579.41
2023-11-13T15:38:30.825Z,99577.81
2023-11-13T15:40:58.352Z,99588.97
2023-11-13T15:43:24.854Z,99591.19
2023-11-13T15:45:51.395Z,99591.19
2023-11-13T15:48:18.515Z,99596.94
2023-11-13T15:50:45.479Z,99603.47
2023-11-13T15:53:14.102Z,99602.97
2023-11-13T15:55:40.590Z,99609.81
2023-11-13T15:58:09.162Z,99613.94
2023-11-13T16:00:36.741Z,99623.19
2023-11-13T16:03:07.728Z,99626.69
2023-11-13T16:05:34.832Z,99622.38
2023-11-13T16:08:01.292Z,99620.78
2023-11-13T16:10:27.844Z,99645.81
2023-11-13T16:12:55.255Z,99641.50
2023-11-13T16:15:24.303Z,99656.50
2023-11-13T16:17:52.233Z,99670.06
2023-11-13T16:20:20.546Z,99673.06
2023-11-13T16:22:47.175Z,99685.84
2023-11-13T16:25:14.369Z,99676.69
2023-11-13T16:27:41.456Z,99679.69
2023-11-13T16:30:08.769Z,99690.06
2023-11-13T16:32:35.637Z,99685.72
2023-11-13T16:35:02.194Z,99690.38
2023-11-13T16:37:28.650Z,99705.84
2023-11-13T16:39:56.548Z,99710.75
2023-11-13T16:42:22.982Z,99711.88
2023-11-13T16:44:50.440Z,99716.78
2023-11-13T16:47:17.021Z,99719.03
2023-11-13T16:49:44.246Z,99722.34
2023-11-13T16:52:11.700Z,99732.38
2023-11-13T16:54:38.203Z,99733.47
2023-11-13T16:57:04.947Z,99728.38
2023-11-13T16:59:31.355Z,99735.19
2023-11-13T17:01:57.755Z,99736.59
2023-11-13T17:04:24.227Z,99739.91
2023-11-13T17:06:51.369Z,99742.13
2023-11-13T17:09:17.882Z,99750.88
2023-11-13T17:11:45.222Z,99763.59
2023-11-13T17:14:13.145Z,99764.50
2023-11-13T17:16:42.628Z,99760.19
2023-11-13T17:19:09.895Z,99775.97
2023-11-13T17:21:36.445Z,99764.88
2023-11-13T17:24:03.010Z,99779.84
2023-11-13T17:26:29.473Z,99780.13
2023-11-13T17:28:55.982Z,99789.09
2023-11-13T17:31:24.611Z,99793.41
2023-11-13T17:33:52.721Z,99800.44
2023-11-13T17:36:19.635Z,99795.03
2023-11-13T17:38:46.041Z,99813.50
2023-11-13T17:41:12.481Z,99804.25
2023-11-13T17:43:39.033Z,99807.78
2023-11-13T17:46:05.842Z,99810.47
2023-11-13T17:48:32.332Z,99804.25
2023-11-13T17:50:58.764Z,99802.66
2023-11-13T17:53:25.293Z,99804.25
2023-11-13T17:55:51.777Z,99820.22
2023-11-13T17:58:18.449Z,99813.72
2023-11-13T18:00:46.702Z,99826.97
2023-11-13T18:03:15.989Z,99815.63
2023-11-13T18:05:42.574Z,99814.53
2023-11-13T18:08:09.747Z,99837.31
2023-11-13T18:10:36.297Z,99819.94
2023-11-13T18:13:04.676Z,99817.25
2023-11-13T18:15:31.135Z,99812.31
2023-11-13T18:17:58.439Z,99825.38
2023-11-13T18:20:24.919Z,99825.38
2023-11-13T18:22:52.106Z,99834.63
2023-11-13T18:25:19.372Z,99818.34
2023-11-13T18:27:46.410Z,99827.56
2023-11-13T18:30:13.894Z,99825.66
2023-11-13T18:32:40.583Z,99825.66
2023-11-13T18:35:07.998Z,99827.56
2023-11-13T18:37:36.219Z,99831.38
2023-11-13T18:40:04.179Z,99818.13
2023-11-13T18:42:30.586Z,99817.31
2023-11-13T18:44:57.139Z,99829.28
2023-11-13T18:47:23.742Z,99824.94
2023-11-13T18:49:51.014Z,99820.03
2023-11-13T18:52:17.741Z,99829.28
2023-11-13T18:54:45.546Z,99816.50
2023-11-13T18:57:12.218Z,99822.75
2023-11-13T18:59:38.639Z,99833.59
2023-11-13T19:02:06.751Z,99838.19
2023-11-13T19:04:33.221Z,99839.00
2023-11-13T19:07:00.075Z,99839.00
2023-11-13T19:09:26.507Z,99836.31
2023-11-13T19:11:52.961Z,99849.28
2023-11-13T19:14:20.112Z,99860.13
2023-11-13T19:16:46.613Z,99859.81
2023-11-13T19:19:13.196Z,99854.38
2023-11-13T19:21:39.643Z,99856.81
2023-11-13T19:24:07.126Z,99849.78
2023-11-13T19:26:33.653Z,99859.53
2023-11-13T19:29:00.831Z,99854.09
2023-11-13T19:31:27.656Z,99873.59
2023-11-13T19:33:57.002Z,99870.59
2023-11-13T19:36:24.614Z,99881.44
2023-11-13T19:38:51.134Z,99869.78
2023-11-13T19:41:17.543Z,99888.78
2023-11-13T19:43:44.274Z,99890.66
2023-11-13T19:46:11.426Z,99880.66
2023-11-13T19:48:38.107Z,99881.75
2023-11-13T19:51:05.764Z,99885.56
2023-11-13T19:53:32.420Z,99896.91
2023-11-13T19:56:00.589Z,99897.72
2023-11-13T19:58:27.101Z,99910.47
2023-11-13T20:00:53.735Z,99910.47
2023-11-13T20:03:20.397Z,99918.63
2023-11-13T20:05:46.829Z,99915.91
2023-11-13T20:08:14.234Z,99925.66
2023-11-13T20:10:41.815Z,99915.91
2023-11-13T20:13:08.259Z,99924.03
2023-11-13T20:15:34.680Z,99937.59
2023-11-13T20:18:01.228Z,99922.94
2023-11-13T20:20:28.030Z,99925.66
2023-11-13T20:22:54.493Z,99938.13
2023-11-13T20:25:21.676Z,99943.53
2023-11-13T20:27:48.202Z,99944.34
2023-11-13T20:30:15.302Z,99938.13
2023-11-13T20:32:41.838Z,99947.34
2023-11-13T20:35:08.681Z,99953.56
2023-11-13T20:37:35.224Z,99956.59
2023-11-13T20:40:01.732Z,99955.50
2023-11-13T20:42:28.271Z,99941.94
2023-11-13T20:44:54.723Z,99946.53
2023-11-13T20:47:21.324Z,99951.16
2023-11-13T20:49:48.022Z,99941.94
2023-11-13T20:52:16.566Z,99952.78
2023-11-13T20:54:45.240Z,99953.28
2023-11-13T20:57:11.986Z,99949.75
2023-11-13T20:59:39.087Z,99953.00
2023-11-13T21:02:08.696Z,99959.22
2023-11-13T21:04:35.208Z,99961.44
2023-11-13T21:07:01.745Z,99959.50
2023-11-13T21:09:28.317Z,99953.81
2023-11-13T21:11:55.624Z,99962.75
2023-11-13T21:14:22.062Z,99956.53
2023-11-13T21:16:48.519Z,99974.41
2023-11-13T21:19:15.052Z,99960.84
2023-11-13T21:21:41.463Z,99958.66
2023-11-13T21:24:10.452Z,99961.88
2023-11-13T21:26:37.154Z,99958.06
2023-11-13T21:29:04.916Z,99954.53
2023-11-13T21:31:31.906Z,99960.47
2023-11-13T21:33:59.580Z,99972.13
2023-11-13T21:36:26.728Z,99959.88
2023-11-13T21:38:54.543Z,99968.84
2023-11-13T21:41:21.585Z,99970.72
2023-11-13T21:43:51.099Z,99969.94
2023-11-13T21:46:17.917Z,99976.97
2023-11-13T21:48:44.451Z,99963.94
2023-11-13T21:51:11.248Z,99963.94
2023-11-13T21:53:38.432Z,99961.22
2023-11-13T21:56:08.210Z,99963.09
2023-11-13T21:58:34.815Z,99966.63
2023-11-13T22:01:01.811Z,99973.69
2023-11-13T22:03:30.114Z,99954.69
2023-11-13T22:05:58.559Z,99962.81
2023-11-13T22:08:25.430Z,99967.16
2023-11-13T22:10:53.478Z,99969.56
2023-11-13T22:13:20.234Z,99963.34
2023-11-13T22:15:46.687Z,99963.34
2023-11-13T22:18:13.165Z,99969.88
2023-11-13T22:20:39.657Z,99966.84
2023-11-13T22:23:09.238Z,99958.69
2023-11-13T22:25:36.183Z,99967.66
2023-11-13T22:28:02.948Z,99979.03
2023-11-13T22:30:29.832Z,99966.25
2023-11-13T22:32:57.825Z,99971.41
2023-11-13T22:35:24.577Z,99969.78
2023-11-13T22:37:51.136Z,99957.84
2023-11-13T22:40:17.603Z,99958.13
2023-11-13T22:42:44.197Z,99965.75
2023-11-13T22:45:11.334Z,99959.53
2023-11-13T22:47:37.901Z,99960.63
2023-11-13T22:50:06.827Z,99964.44
2023-11-13T22:52:33.308Z,99963.34
2023-11-13T22:55:02.922Z,99955.47
2023-11-13T22:57:30.253Z,99962.81
2023-11-13T22:59:57.740Z,99949.25
2023-11-13T23:02:24.285Z,99950.88
2023-11-13T23:05:08.346Z,99967.16
2023-11-13T23:07:34.817Z,99971.47
2023-11-13T23:10:01.438Z,99970.38
2023-11-13T23:12:28.398Z,99976.84
2023-11-13T23:15:05.642Z,99977.63
2023-11-13T23:17:38.323Z,99985.44
2023-11-13T23:20:22.065Z,99976.22
2023-11-13T23:22:50.912Z,99977.81
2023-11-13T23:25:17.385Z,99978.66
2023-11-13T23:27:43.819Z,99981.34
2023-11-13T23:30:14.936Z,99984.88
2023-11-13T23:32:41.601Z,99976.44
2023-11-13T23:35:10.243Z,99981.88
2023-11-13T23:37:37.459Z,99971.81
2023-11-13T23:40:06.304Z,99967.47
2023-11-13T23:42:37.702Z,99975.34
2023-11-13T23:45:06.433Z,99974.25
2023-11-13T23:47:35.671Z,99976.13
2023-11-13T23:50:03.454Z,99989.69
2023-11-13T23:52:54.003Z,99973.94
2023-11-13T23:55:45.603Z,99977.75
2023-11-13T23:58:12.211Z,99980.47
